Time;durP1;ratioP1;P1;durP2;ratioP2;P2;SDS_P1;SDS_P2;PMS_P1;PMS_P2;Temp;Humidity;BMP_temperature;BMP_pressure;BME280_temperature;BME280_humidity;BME280_pressure;Samples;Min_cycle;Max_cycle;Signal;HPM_P1;HPM_P2
2023/05/15 00:02:29;;;;;;;13.30;7.00;;;;;;;10.86;99.55;100629.25;6100258;28;20033;-68
2023/05/15 00:05:24;;;;;;;12.13;6.72;;;;;;;10.77;100.00;100616.88;6099753;28;20033;-67
2023/05/15 00:08:19;;;;;;;12.87;6.83;;;;;;;10.85;100.00;100605.53;6099880;28;20037;-67
2023/05/15 00:11:15;;;;;;;11.23;6.67;;;;;;;11.28;99.44;100614.41;6098270;28;20456;-67
2023/05/15 00:14:10;;;;;;;11.80;6.37;;;;;;;10.98;98.16;100608.66;6098437;28;20063;-67
2023/05/15 00:17:06;;;;;;;9.57;5.97;;;;;;;10.84;98.68;100593.25;6099125;28;20033;-67
2023/05/15 00:20:03;;;;;;;13.73;7.15;;;;;;;10.73;99.37;100594.31;6099962;28;20508;-67
2023/05/15 00:22:58;;;;;;;10.85;6.40;;;;;;;10.64;99.65;100598.69;6099519;28;20419;-67
2023/05/15 00:25:53;;;;;;;9.73;6.77;;;;;;;10.75;100.00;100603.78;6098663;28;20032;-67
2023/05/15 00:28:49;;;;;;;12.57;6.87;;;;;;;11.29;96.75;100588.69;6098247;28;20029;-67
2023/05/15 00:31:44;;;;;;;10.68;6.40;;;;;;;10.90;95.53;100590.00;6099470;28;20032;-67
2023/05/15 00:34:40;;;;;;;10.03;6.10;;;;;;;10.87;97.20;100600.94;6098773;28;20078;-68
2023/05/15 00:37:35;;;;;;;12.83;6.77;;;;;;;10.59;97.62;100595.66;6099408;28;20383;-67
2023/05/15 00:40:31;;;;;;;10.50;6.17;;;;;;;10.41;99.22;100586.00;6087030;28;20040;-67
2023/05/15 00:43:27;;;;;;;10.68;6.47;;;;;;;10.44;100.00;100599.78;6094079;28;20020;-67
2023/05/15 00:46:23;;;;;;;11.13;7.05;;;;;;;10.31;100.00;100596.66;6098226;28;20349;-68
2023/05/15 00:49:20;;;;;;;11.45;6.82;;;;;;;10.21;100.00;100595.88;6097947;28;20029;-67
2023/05/15 00:52:16;;;;;;;10.80;6.70;;;;;;;10.05;100.00;100585.03;6091370;28;20037;-67
2023/05/15 00:55:11;;;;;;;12.77;7.07;;;;;;;10.04;100.00;100600.09;6096978;28;20041;-68
2023/05/15 00:58:09;;;;;;;12.13;7.07;;;;;;;9.95;100.00;100589.50;6098946;28;20029;-68
2023/05/15 01:01:05;;;;;;;10.77;6.80;;;;;;;10.35;100.00;100592.72;6099068;28;20028;-67
2023/05/15 01:04:03;;;;;;;16.45;7.00;;;;;;;11.01;100.00;100573.84;6097077;28;20037;-68
2023/05/15 01:06:58;;;;;;;10.10;6.90;;;;;;;10.53;98.84;100590.94;6099039;28;20025;-67
2023/05/15 01:09:54;;;;;;;13.07;7.00;;;;;;;10.31;99.50;100587.84;6098717;28;20428;-68
2023/05/15 01:12:53;;;;;;;10.85;7.07;;;;;;;10.04;100.00;100583.34;6098036;28;20357;-67
2023/05/15 01:15:48;;;;;;;11.70;7.13;;;;;;;10.02;100.00;100587.97;6096909;28;20033;-68
2023/05/15 01:18:44;;;;;;;11.23;6.55;;;;;;;9.90;100.00;100570.56;6097262;28;20658;-67
2023/05/15 01:21:55;;;;;;;10.83;6.87;;;;;;;9.88;100.00;100572.53;6098839;28;20124;-68
2023/05/15 01:25:17;;;;;;;12.52;7.18;;;;;;;10.00;100.00;100582.78;6096736;28;20106;-68
2023/05/15 01:28:21;;;;;;;12.35;7.45;;;;;;;9.93;100.00;100589.66;6097075;28;20086;-68
2023/05/15 01:31:18;;;;;;;12.00;6.68;;;;;;;9.68;100.00;100570.91;6094831;28;20052;-68
2023/05/15 01:34:15;;;;;;;14.60;8.10;;;;;;;9.73;100.00;100590.69;6096838;28;20032;-68
2023/05/15 01:37:12;;;;;;;12.88;7.32;;;;;;;9.54;100.00;100559.81;6097171;28;20151;-68
2023/05/15 01:40:09;;;;;;;10.65;7.07;;;;;;;9.57;100.00;100587.81;6106444;28;20032;-67
2023/05/15 01:43:10;;;;;;;14.57;6.63;;;;;;;9.46;100.00;100575.56;6087034;28;20045;-68
2023/05/15 01:46:07;;;;;;;11.43;7.40;;;;;;;9.51;100.00;100583.91;6097188;28;20025;-68
2023/05/15 01:49:02;;;;;;;12.93;7.15;;;;;;;9.43;100.00;100567.91;6098028;28;20452;-67
2023/05/15 01:52:07;;;;;;;13.43;7.40;;;;;;;9.36;100.00;100576.56;6097790;28;20032;-67
2023/05/15 01:55:04;;;;;;;12.18;6.55;;;;;;;9.32;100.00;100576.00;6095957;28;20105;-68
2023/05/15 01:58:01;;;;;;;13.15;7.22;;;;;;;9.43;100.00;100583.78;6095591;28;20033;-67
2023/05/15 02:00:56;;;;;;;9.82;6.45;;;;;;;9.27;100.00;100564.19;6097517;28;20032;-67
2023/05/15 02:03:53;;;;;;;12.10;7.43;;;;;;;9.29;100.00;100565.72;6095423;28;20079;-67
2023/05/15 02:06:50;;;;;;;14.93;8.30;;;;;;;9.47;100.00;100571.13;6096293;28;20094;-68
2023/05/15 02:09:45;;;;;;;13.20;7.55;;;;;;;9.61;100.00;100554.78;6095341;28;20052;-67
2023/05/15 02:12:41;;;;;;;14.32;7.57;;;;;;;9.69;100.00;100557.56;6097462;28;20111;-67
2023/05/15 02:15:36;;;;;;;13.48;7.32;;;;;;;9.65;100.00;100544.75;6096087;28;20167;-67
2023/05/15 02:18:32;;;;;;;13.88;7.75;;;;;;;9.69;100.00;100536.38;6089154;28;20076;-67
2023/05/15 02:21:27;;;;;;;12.85;6.97;;;;;;;9.62;100.00;100537.91;6095941;28;20423;-67
2023/05/15 02:24:23;;;;;;;10.90;7.32;;;;;;;9.59;100.00;100527.63;6096369;28;20068;-67
2023/05/15 02:27:32;;;;;;;13.33;7.90;;;;;;;9.51;100.00;100546.84;6087321;28;20037;-67
2023/05/15 02:30:45;;;;;;;12.00;7.00;;;;;;;9.47;100.00;100542.84;6096784;28;20036;-67
2023/05/15 02:33:50;;;;;;;12.13;7.13;;;;;;;9.26;100.00;100536.91;6095443;28;20068;-68
2023/05/15 02:36:47;;;;;;;11.30;7.30;;;;;;;9.22;100.00;100548.75;6096310;28;20033;-68
2023/05/15 02:39:44;;;;;;;13.27;7.78;;;;;;;9.14;100.00;100540.66;6095887;28;20079;-68
2023/05/15 02:42:40;;;;;;;15.15;7.72;;;;;;;9.04;100.00;100542.50;6100390;28;20484;-68
2023/05/15 02:45:35;;;;;;;13.30;7.43;;;;;;;8.77;100.00;100522.06;6101498;28;20112;-68
2023/05/15 02:48:31;;;;;;;14.38;7.80;;;;;;;8.86;100.00;100536.22;6100578;28;20048;-67
2023/05/15 02:51:26;;;;;;;11.50;7.47;;;;;;;8.79;100.00;100513.97;6100703;28;20036;-68
2023/05/15 02:54:21;;;;;;;14.63;7.60;;;;;;;9.22;100.00;100530.22;6100024;28;20033;-68
2023/05/15 02:57:17;;;;;;;11.53;6.87;;;;;;;8.92;100.00;100536.50;6101720;28;20047;-68
2023/05/15 03:00:13;;;;;;;11.50;6.67;;;;;;;8.81;100.00;100527.88;6101787;28;20270;-67
2023/05/15 03:03:08;;;;;;;15.15;7.38;;;;;;;9.14;100.00;100521.31;6101443;28;20040;-67
2023/05/15 03:06:03;;;;;;;14.27;8.50;;;;;;;9.16;100.00;100535.25;6100494;28;20432;-67
2023/05/15 03:08:58;;;;;;;15.50;8.10;;;;;;;9.28;100.00;100532.31;6101351;28;20040;-68
2023/05/15 03:11:54;;;;;;;13.43;7.27;;;;;;;9.02;100.00;100520.66;6099960;28;20071;-68
2023/05/15 03:14:49;;;;;;;14.07;7.23;;;;;;;8.88;100.00;100521.06;6101060;28;20028;-67
2023/05/15 03:17:44;;;;;;;14.80;7.40;;;;;;;8.67;100.00;100505.34;6100851;28;20043;-67
2023/05/15 03:20:41;;;;;;;14.85;8.10;;;;;;;8.52;100.00;100508.53;6100650;28;20032;-67
2023/05/15 03:23:36;;;;;;;12.10;8.10;;;;;;;8.64;100.00;100497.69;6100477;28;20028;-67
2023/05/15 03:26:31;;;;;;;12.98;8.25;;;;;;;8.94;100.00;100508.09;6100789;28;20040;-69
2023/05/15 03:29:27;;;;;;;14.47;8.00;;;;;;;9.53;100.00;100499.94;6100559;28;20037;-68
2023/05/15 03:32:22;;;;;;;15.57;7.60;;;;;;;9.75;100.00;100497.88;6100940;28;20029;-68
2023/05/15 03:35:17;;;;;;;11.73;7.40;;;;;;;9.75;100.00;100505.84;6100574;28;20108;-68
2023/05/15 03:38:12;;;;;;;13.10;7.20;;;;;;;9.87;98.30;100512.59;6087274;28;20125;-68
2023/05/15 03:41:08;;;;;;;11.10;6.80;;;;;;;9.26;99.70;100515.75;6100847;28;20041;-68
2023/05/15 03:44:03;;;;;;;13.18;7.68;;;;;;;8.90;100.00;100522.59;6098691;28;20380;-68
2023/05/15 03:46:59;;;;;;;13.00;6.70;;;;;;;9.80;100.00;100512.34;6100335;28;20029;-69
2023/05/15 03:49:54;;;;;;;11.37;7.27;;;;;;;9.95;100.00;100510.88;6100711;28;20622;-68
2023/05/15 03:52:49;;;;;;;13.98;7.78;;;;;;;9.84;99.74;100513.72;6099863;28;20108;-68
2023/05/15 03:55:45;;;;;;;11.17;7.30;;;;;;;9.07;99.59;100507.84;6090605;28;20087;-68
2023/05/15 03:58:40;;;;;;;12.47;7.37;;;;;;;8.69;100.00;100516.63;6100587;28;20259;-68
2023/05/15 04:01:35;;;;;;;13.07;7.30;;;;;;;8.40;100.00;100504.38;6099694;28;20108;-68
2023/05/15 04:04:31;;;;;;;14.97;7.90;;;;;;;8.31;100.00;100520.06;6099947;28;20530;-68
2023/05/15 04:07:26;;;;;;;14.25;8.60;;;;;;;8.34;100.00;100519.78;6100183;28;20028;-68
2023/05/15 04:10:21;;;;;;;14.73;8.30;;;;;;;8.26;100.00;100524.06;6095621;28;20036;-68
2023/05/15 04:13:17;;;;;;;11.00;7.43;;;;;;;8.17;100.00;100517.78;6114200;28;20372;-68
2023/05/15 04:16:13;;;;;;;15.67;8.40;;;;;;;8.07;100.00;100497.59;6097425;28;20041;-68
2023/05/15 04:19:08;;;;;;;13.30;7.82;;;;;;;8.13;100.00;100513.72;6095709;28;20063;-68
2023/05/15 04:22:03;;;;;;;14.23;8.50;;;;;;;8.11;100.00;100497.19;6099893;28;20036;-68
2023/05/15 04:24:58;;;;;;;13.37;7.77;;;;;;;8.36;100.00;100511.72;6098824;28;20443;-69
2023/05/15 04:27:54;;;;;;;15.33;8.47;;;;;;;8.55;100.00;100518.84;6090049;28;20029;-68
2023/05/15 04:30:50;;;;;;;13.88;8.10;;;;;;;8.72;100.00;100497.00;6110871;28;20064;-68
2023/05/15 04:33:45;;;;;;;13.93;8.10;;;;;;;8.93;100.00;100497.69;6103915;28;20052;-69
2023/05/15 04:36:41;;;;;;;14.67;7.90;;;;;;;9.20;100.00;100502.25;6085976;28;20037;-68
2023/05/15 04:39:36;;;;;;;12.50;7.83;;;;;;;9.26;100.00;100501.66;6097734;28;20531;-69
2023/05/15 04:42:31;;;;;;;14.03;8.40;;;;;;;9.43;100.00;100498.28;6094899;28;20024;-68
2023/05/15 04:45:26;;;;;;;16.43;10.07;;;;;;;9.68;100.00;100507.38;6098571;28;20267;-69
2023/05/15 04:48:22;;;;;;;11.63;8.23;;;;;;;9.94;100.00;100505.75;6099129;28;20033;-69
2023/05/15 04:51:17;;;;;;;13.57;7.80;;;;;;;10.20;100.00;100498.78;6099227;28;20387;-68
2023/05/15 04:54:12;;;;;;;13.33;7.50;;;;;;;10.44;100.00;100498.22;6098735;28;20029;-69
2023/05/15 04:57:08;;;;;;;12.73;7.23;;;;;;;10.74;98.99;100495.19;6098812;28;20027;-69
2023/05/15 05:00:09;;;;;;;9.77;6.65;;;;;;;10.89;97.02;100506.09;6098822;28;20289;-69
2023/05/15 05:03:04;;;;;;;14.95;7.95;;;;;;;11.14;94.79;100498.16;6099146;28;20049;-68
2023/05/15 05:05:59;;;;;;;10.63;7.37;;;;;;;11.28;94.15;100486.97;6097262;28;20028;-68
2023/05/15 05:08:55;;;;;;;13.73;7.20;;;;;;;11.68;93.00;100493.53;6095362;28;20283;-68
2023/05/15 05:11:50;;;;;;;11.43;7.53;;;;;;;11.68;92.32;100483.75;6087711;28;20031;-68
2023/05/15 05:14:45;;;;;;;12.73;7.87;;;;;;;11.89;92.54;100497.47;6097869;28;20456;-68
2023/05/15 05:17:41;;;;;;;15.00;8.13;;;;;;;12.05;92.06;100493.22;6084752;28;20028;-68
2023/05/15 05:20:36;;;;;;;10.50;7.13;;;;;;;12.29;91.33;100482.66;6098243;28;20041;-68
2023/05/15 05:23:31;;;;;;;12.40;7.90;;;;;;;12.79;88.72;100480.75;6094491;28;20279;-69
2023/05/15 05:26:28;;;;;;;11.23;7.43;;;;;;;12.81;86.58;100489.38;6096815;28;20279;-69
2023/05/15 05:29:23;;;;;;;10.40;7.00;;;;;;;13.21;84.61;100487.75;6098165;28;20021;-69
2023/05/15 05:32:19;;;;;;;11.02;7.38;;;;;;;13.15;83.67;100480.41;6097506;28;20033;-69
2023/05/15 05:35:14;;;;;;;13.40;7.27;;;;;;;12.98;83.24;100488.38;6095370;28;20028;-70
2023/05/15 05:38:10;;;;;;;12.30;8.52;;;;;;;12.95;83.25;100490.53;6095974;28;20412;-68
2023/05/15 05:41:05;;;;;;;11.43;7.82;;;;;;;13.04;83.00;100490.34;6097672;28;20028;-67
2023/05/15 05:44:00;;;;;;;10.50;7.17;;;;;;;13.32;83.54;100474.03;6095151;28;20467;-67
2023/05/15 05:46:56;;;;;;;13.05;7.47;;;;;;;13.91;82.72;100468.22;6096849;28;20592;-68
2023/05/15 05:49:51;;;;;;;11.25;7.95;;;;;;;13.88;81.59;100478.41;6101182;28;20029;-68
2023/05/15 05:52:46;;;;;;;11.90;8.13;;;;;;;14.18;79.67;100480.25;6101682;28;20029;-67
2023/05/15 05:55:42;;;;;;;12.73;7.70;;;;;;;14.61;76.62;100476.16;6096084;28;20259;-67
2023/05/15 05:58:37;;;;;;;10.67;7.23;;;;;;;14.25;78.06;100475.88;6094898;28;20037;-70
2023/05/15 06:01:32;;;;;;;10.93;7.23;;;;;;;14.03;79.97;100482.81;6095851;28;20025;-67
2023/05/15 06:04:27;;;;;;;13.13;8.13;;;;;;;14.64;78.89;100463.31;6096568;28;20329;-68
2023/05/15 06:07:23;;;;;;;14.10;8.37;;;;;;;14.77;78.43;100470.72;6097053;28;20071;-67
2023/05/15 06:10:19;;;;;;;13.23;6.97;;;;;;;14.86;78.10;100469.66;6096905;28;20380;-68
2023/05/15 06:13:15;;;;;;;12.10;7.45;;;;;;;15.11;76.52;100455.03;6096520;28;20470;-69
2023/05/15 06:16:10;;;;;;;10.85;7.05;;;;;;;15.76;73.50;100449.84;6093457;28;20037;-69
2023/05/15 06:19:05;;;;;;;16.57;7.70;;;;;;;15.70;71.96;100463.16;6092525;28;20021;-69
2023/05/15 06:22:01;;;;;;;10.75;7.40;;;;;;;15.72;71.44;100471.81;6097199;28;20464;-69
2023/05/15 06:24:56;;;;;;;9.47;7.43;;;;;;;15.86;70.30;100474.47;6095907;28;20035;-69
2023/05/15 06:27:51;;;;;;;12.90;6.17;;;;;;;16.23;70.58;100473.47;6097407;28;20033;-67
2023/05/15 06:30:47;;;;;;;13.77;8.10;;;;;;;16.60;68.22;100467.94;6096656;28;20057;-67
2023/05/15 06:33:42;;;;;;;11.38;7.68;;;;;;;16.11;69.54;100460.78;6095686;28;20029;-67
2023/05/15 06:36:37;;;;;;;12.07;7.00;;;;;;;16.74;68.43;100468.09;6096956;28;20427;-68
2023/05/15 06:39:33;;;;;;;10.73;7.15;;;;;;;16.46;70.42;100471.50;6097187;28;20104;-68
2023/05/15 06:42:28;;;;;;;10.33;7.00;;;;;;;16.81;68.68;100463.63;6097589;28;20047;-67
2023/05/15 06:45:23;;;;;;;10.63;6.83;;;;;;;16.61;67.86;100468.78;6108102;28;20084;-68
2023/05/15 06:48:18;;;;;;;12.33;7.10;;;;;;;16.53;68.60;100471.56;6097657;28;20082;-68
2023/05/15 06:51:14;;;;;;;9.93;7.00;;;;;;;16.37;69.09;100453.88;6096690;28;20021;-68
2023/05/15 06:54:09;;;;;;;11.07;6.97;;;;;;;16.23;68.80;100454.75;6095441;28;20044;-68
2023/05/15 06:57:05;;;;;;;9.68;6.72;;;;;;;16.35;69.76;100461.28;6095953;28;20028;-67
2023/05/15 07:00:00;;;;;;;8.40;6.18;;;;;;;16.69;69.18;100451.78;6096417;28;20071;-67
2023/05/15 07:02:56;;;;;;;10.47;6.40;;;;;;;17.31;66.34;100444.66;6094996;28;20064;-67
2023/05/15 07:05:52;;;;;;;8.90;6.05;;;;;;;18.08;64.04;100452.50;6094800;28;20603;-68
2023/05/15 07:08:48;;;;;;;9.88;5.75;;;;;;;17.96;61.42;100441.53;6088497;28;20405;-68
2023/05/15 07:11:43;;;;;;;9.27;6.18;;;;;;;17.52;61.86;100447.25;6098569;28;20025;-68
2023/05/15 07:14:38;;;;;;;8.13;5.10;;;;;;;17.51;61.67;100448.28;6094871;28;20025;-68
2023/05/15 07:17:34;;;;;;;7.77;5.17;;;;;;;17.47;62.80;100452.38;6093954;28;20369;-69
2023/05/15 07:20:29;;;;;;;7.97;5.47;;;;;;;17.28;63.14;100455.75;6095215;28;20266;-68
2023/05/15 07:23:24;;;;;;;8.87;5.30;;;;;;;17.50;63.90;100449.28;6094147;28;20797;-68
2023/05/15 07:26:20;;;;;;;9.63;5.10;;;;;;;17.56;62.48;100447.69;6096077;28;20032;-68
2023/05/15 07:29:15;;;;;;;8.90;5.05;;;;;;;17.83;61.32;100450.31;6098978;28;20299;-69
2023/05/15 07:32:10;;;;;;;8.20;5.10;;;;;;;17.70;63.11;100441.38;6100384;28;20384;-68
2023/05/15 07:35:06;;;;;;;8.80;5.33;;;;;;;18.02;61.27;100448.75;6098853;28;20044;-68
2023/05/15 07:38:02;;;;;;;9.82;5.28;;;;;;;18.10;61.34;100450.47;6100261;28;20059;-68
2023/05/15 07:40:57;;;;;;;8.15;4.85;;;;;;;18.03;62.17;100438.84;6100135;28;20029;-68
2023/05/15 07:43:52;;;;;;;10.37;5.20;;;;;;;18.04;61.40;100443.19;6099370;28;20036;-69
2023/05/15 07:46:48;;;;;;;8.05;5.13;;;;;;;17.99;61.59;100432.25;6097989;28;20032;-68
2023/05/15 07:49:43;;;;;;;6.95;4.55;;;;;;;18.33;61.78;100432.97;6100608;28;20463;-68
2023/05/15 07:52:38;;;;;;;9.67;5.17;;;;;;;18.74;61.69;100430.16;6099559;28;20037;-68
2023/05/15 07:55:33;;;;;;;10.97;5.27;;;;;;;18.61;57.88;100407.84;6098883;28;20464;-69
2023/05/15 07:58:29;;;;;;;10.37;4.77;;;;;;;18.60;56.88;100422.28;6099436;28;20041;-69
2023/05/15 08:01:24;;;;;;;7.37;4.40;;;;;;;18.43;56.84;100409.22;6098857;28;20029;-69
2023/05/15 08:04:19;;;;;;;6.37;4.10;;;;;;;18.86;55.96;100430.38;6099360;28;20283;-68
2023/05/15 08:07:15;;;;;;;7.13;4.23;;;;;;;19.07;55.48;100407.84;6099117;28;20270;-69
2023/05/15 08:10:10;;;;;;;6.37;3.63;;;;;;;19.73;54.30;100422.78;6098922;28;20033;-70
2023/05/15 08:13:05;;;;;;;6.43;3.65;;;;;;;20.25;50.07;100405.59;6099598;28;20029;-69
2023/05/15 08:16:01;;;;;;;8.75;3.75;;;;;;;20.46;51.66;100412.53;6098181;28;20503;-68
2023/05/15 08:19:00;;;;;;;6.07;3.90;;;;;;;20.60;50.26;100406.00;6100044;28;20031;-69
2023/05/15 08:21:55;;;;;;;8.35;3.85;;;;;;;20.36;49.50;100417.53;6098910;28;20059;-69
2023/05/15 08:24:50;;;;;;;17.20;4.03;;;;;;;20.49;51.01;100404.00;6098603;28;20033;-69
2023/05/15 08:27:46;;;;;;;10.43;3.97;;;;;;;20.77;49.90;100409.78;6098919;28;20521;-69
2023/05/15 08:30:41;;;;;;;5.30;3.03;;;;;;;20.62;48.00;100395.84;6098583;28;20036;-69
2023/05/15 08:33:36;;;;;;;5.97;3.53;;;;;;;20.82;46.03;100404.56;6098878;28;20029;-68
2023/05/15 08:36:32;;;;;;;7.60;3.50;;;;;;;20.38;46.84;100391.25;6098444;28;20048;-68
2023/05/15 08:39:27;;;;;;;6.22;3.72;;;;;;;19.79;49.45;100392.34;6097007;28;20036;-69
2023/05/15 08:42:28;;;;;;;8.50;3.70;;;;;;;19.64;50.81;100399.88;6098686;28;20045;-68
2023/05/15 08:45:23;;;;;;;6.88;3.80;;;;;;;19.75;48.84;100371.47;6097632;28;20359;-69
2023/05/15 08:48:21;;;;;;;7.83;3.87;;;;;;;20.04;48.76;100387.88;6098581;28;20028;-69
2023/05/15 08:51:17;;;;;;;8.32;3.92;;;;;;;20.36;48.17;100374.44;6098551;28;20066;-68
2023/05/15 08:54:14;;;;;;;6.47;3.60;;;;;;;20.99;48.38;100380.56;6098088;28;20037;-68
2023/05/15 08:57:09;;;;;;;7.78;3.78;;;;;;;21.20;46.49;100380.19;6097823;28;20045;-69
2023/05/15 09:00:10;;;;;;;8.70;3.83;;;;;;;21.23;46.08;100380.56;6098547;28;20470;-68
2023/05/15 09:03:05;;;;;;;5.13;3.42;;;;;;;21.42;45.00;100375.16;6094986;28;20266;-69
2023/05/15 09:06:01;;;;;;;7.00;3.40;;;;;;;21.05;44.91;100382.38;6097946;28;20388;-69
2023/05/15 09:08:57;;;;;;;5.15;3.25;;;;;;;20.87;44.59;100361.63;6097809;28;20033;-70
2023/05/15 09:11:53;;;;;;;7.97;3.35;;;;;;;20.65;43.48;100360.38;6097416;28;20076;-69
2023/05/15 09:14:48;;;;;;;6.75;3.58;;;;;;;20.75;44.69;100368.78;6108115;28;20503;-69
2023/05/15 09:17:44;;;;;;;6.70;3.70;;;;;;;20.63;44.59;100359.72;6105206;28;20029;-68
2023/05/15 09:20:39;;;;;;;5.55;3.33;;;;;;;20.92;42.76;100355.56;6097520;28;20274;-68
2023/05/15 09:23:35;;;;;;;5.50;3.13;;;;;;;21.39;41.98;100365.66;6097545;28;20033;-68
2023/05/15 09:26:30;;;;;;;9.67;3.53;;;;;;;21.44;43.90;100365.84;6097548;28;20086;-68
2023/05/15 09:29:26;;;;;;;7.28;3.70;;;;;;;21.75;42.67;100360.25;6096654;28;20468;-69
2023/05/15 09:32:26;;;;;;;6.32;3.08;;;;;;;21.91;42.46;100367.75;6097506;28;20029;-69
2023/05/15 09:35:37;;;;;;;8.00;3.25;;;;;;;21.62;43.95;100349.63;6091024;28;20041;-68
2023/05/15 09:38:34;;;;;;;7.70;3.00;;;;;;;21.82;43.40;100355.56;6097516;28;20032;-69
2023/05/15 09:41:29;;;;;;;8.15;3.30;;;;;;;21.83;42.27;100356.41;6097659;28;20040;-68
2023/05/15 09:44:25;;;;;;;7.17;3.37;;;;;;;22.30;41.17;100352.84;6096471;28;20120;-69
2023/05/15 09:47:21;;;;;;;7.82;3.70;;;;;;;22.51;40.47;100355.00;6097812;28;20137;-68
2023/05/15 09:50:20;;;;;;;6.43;3.67;;;;;;;22.84;40.48;100359.06;6096541;28;20025;-69
2023/05/15 09:53:15;;;;;;;7.22;3.55;;;;;;;22.66;42.09;100360.00;6096524;28;20032;-69
2023/05/15 09:56:11;;;;;;;9.40;3.80;;;;;;;22.37;42.08;100352.72;6097386;28;20040;-69
2023/05/15 09:59:11;;;;;;;4.87;3.40;;;;;;;22.38;40.90;100355.22;6096936;28;20028;-69
2023/05/15 10:02:07;;;;;;;6.30;3.78;;;;;;;22.19;42.97;100345.53;6096716;28;20035;-69
2023/05/15 10:05:03;;;;;;;5.20;3.43;;;;;;;22.18;43.08;100343.88;6095413;28;20040;-69
2023/05/15 10:07:59;;;;;;;10.05;3.83;;;;;;;22.10;42.36;100341.50;6094948;28;20021;-69
2023/05/15 10:10:58;;;;;;;6.40;3.67;;;;;;;22.17;43.19;100336.03;6094343;28;20029;-68
2023/05/15 10:13:53;;;;;;;8.10;4.07;;;;;;;22.44;42.27;100332.69;6094453;28;20032;-69
2023/05/15 10:16:50;;;;;;;5.90;3.60;;;;;;;22.21;41.10;100332.63;6093911;28;20040;-68
2023/05/15 10:19:53;;;;;;;7.00;3.92;;;;;;;22.50;41.75;100334.44;6095748;28;20025;-69
2023/05/15 10:22:50;;;;;;;5.35;3.47;;;;;;;22.51;40.25;100333.38;6096282;28;20029;-69
2023/05/15 10:26:00;;;;;;;7.05;3.53;;;;;;;22.50;41.60;100320.91;6096268;28;20033;-68
2023/05/15 10:28:56;;;;;;;6.63;3.63;;;;;;;22.77;41.11;100317.81;6095192;28;20513;-69
2023/05/15 10:31:52;;;;;;;6.47;3.95;;;;;;;22.83;40.91;100325.78;6094804;28;20024;-69
2023/05/15 10:34:48;;;;;;;8.70;3.78;;;;;;;22.59;39.83;100325.97;6094454;28;20108;-69
2023/05/15 10:37:46;;;;;;;8.82;3.78;;;;;;;22.77;39.64;100304.28;6096750;28;20021;-69
2023/05/15 10:40:42;;;;;;;7.00;3.90;;;;;;;22.91;40.76;100327.34;6088467;28;20107;-69
2023/05/15 10:43:38;;;;;;;5.90;3.45;;;;;;;23.19;39.47;100322.00;6095676;28;20049;-69
2023/05/15 10:46:34;;;;;;;8.53;3.37;;;;;;;23.16;40.25;100319.75;6095622;28;20055;-69
2023/05/15 10:49:30;;;;;;;7.07;3.70;;;;;;;23.05;38.98;100309.78;6096270;28;20345;-69
2023/05/15 10:52:25;;;;;;;4.70;3.20;;;;;;;22.93;40.25;100303.56;6095717;28;20033;-70
2023/05/15 10:55:21;;;;;;;5.57;3.50;;;;;;;22.90;38.79;100304.03;6094184;28;20380;-69
2023/05/15 10:58:21;;;;;;;8.30;3.53;;;;;;;22.87;38.29;100293.69;6095468;28;20029;-69
2023/05/15 11:01:31;;;;;;;8.15;4.15;;;;;;;22.53;38.33;100306.94;6096138;28;20048;-69
2023/05/15 11:04:31;;;;;;;7.55;3.42;;;;;;;22.22;38.98;100301.03;6098512;28;20123;-69
2023/05/15 11:07:27;;;;;;;4.97;3.50;;;;;;;21.76;39.51;100304.38;6101107;28;20124;-69
2023/05/15 11:10:28;;;;;;;7.22;3.80;;;;;;;21.22;41.04;100302.59;6100502;28;20353;-69
2023/05/15 11:13:24;;;;;;;6.10;3.20;;;;;;;20.90;41.92;100285.66;6098462;28;20029;-69
2023/05/15 11:17:05;;;;;;;7.50;3.45;;;;;;;20.79;43.89;100300.72;6098772;28;20036;-69
2023/05/15 11:20:00;;;;;;;6.57;3.75;;;;;;;20.66;43.34;100286.53;6089317;28;20071;-69
2023/05/15 11:23:01;;;;;;;9.55;3.58;;;;;;;20.70;44.77;100293.16;6099093;28;20033;-68
2023/05/15 11:25:56;;;;;;;7.03;3.80;;;;;;;20.66;43.03;100306.22;6100044;28;20057;-69
2023/05/15 11:28:53;;;;;;;6.40;3.38;;;;;;;20.56;41.80;100280.84;6100492;28;20033;-69
2023/05/15 11:31:48;;;;;;;6.07;3.22;;;;;;;20.44;41.00;100301.44;6098376;28;20048;-69
2023/05/15 11:34:44;;;;;;;5.73;3.10;;;;;;;20.41;41.95;100297.31;6098435;28;20388;-68
2023/05/15 11:37:44;;;;;;;8.43;3.57;;;;;;;20.28;42.31;100312.75;6099708;28;20552;-68
2023/05/15 11:40:49;;;;;;;6.85;3.40;;;;;;;20.25;43.00;100303.25;6100508;28;20036;-69
2023/05/15 11:43:45;;;;;;;6.25;3.25;;;;;;;20.45;41.50;100295.84;6103759;28;20036;-68
2023/05/15 11:46:42;;;;;;;8.98;3.20;;;;;;;20.54;41.79;100286.47;6112869;28;20040;-69
2023/05/15 11:49:37;;;;;;;7.10;3.00;;;;;;;20.66;41.54;100294.63;6099582;28;20044;-69
2023/05/15 11:52:33;;;;;;;7.20;3.90;;;;;;;20.84;42.95;100302.75;6098793;28;20024;-68
2023/05/15 11:55:30;;;;;;;8.25;3.50;;;;;;;21.03;42.70;100290.94;6096691;28;20071;-69
2023/05/15 11:58:25;;;;;;;5.53;2.97;;;;;;;21.11;41.09;100287.97;6098206;28;20468;-69
2023/05/15 12:01:21;;;;;;;5.20;3.30;;;;;;;21.41;41.37;100287.19;6098399;28;20114;-69
2023/05/15 12:04:17;;;;;;;4.93;3.60;;;;;;;21.31;41.25;100293.13;6098262;28;20612;-69
2023/05/15 12:07:12;;;;;;;4.78;3.10;;;;;;;21.62;41.16;100301.03;6099692;28;20267;-68
2023/05/15 12:10:11;;;;;;;7.30;3.63;;;;;;;21.73;41.21;100292.16;6098415;28;20037;-69
2023/05/15 12:13:07;;;;;;;7.85;3.85;;;;;;;21.70;42.73;100292.63;6095734;28;20025;-68
2023/05/15 12:16:03;;;;;;;7.28;3.63;;;;;;;21.54;40.97;100292.44;6098241;28;20029;-69
2023/05/15 12:18:58;;;;;;;10.95;3.70;;;;;;;21.46;40.73;100292.75;6099207;28;20483;-69
2023/05/15 12:21:53;;;;;;;6.63;3.72;;;;;;;21.52;41.36;100279.16;6098428;28;20071;-69
2023/05/15 12:24:49;;;;;;;7.27;3.50;;;;;;;21.53;40.11;100269.19;6098876;28;20040;-69
2023/05/15 12:27:44;;;;;;;10.00;4.00;;;;;;;21.50;41.14;100281.25;6097095;28;21437;-69
2023/05/15 12:30:41;;;;;;;7.43;3.80;;;;;;;21.47;40.86;100281.69;6099125;28;20028;-69
2023/05/15 12:33:37;;;;;;;7.55;3.55;;;;;;;21.58;40.16;100277.44;6097585;28;20607;-69
2023/05/15 12:36:32;;;;;;;8.68;3.58;;;;;;;21.75;39.98;100268.47;6095745;28;20067;-69
2023/05/15 12:39:28;;;;;;;8.63;3.50;;;;;;;21.52;40.13;100270.25;6098735;28;20468;-69
2023/05/15 12:42:23;;;;;;;4.93;2.97;;;;;;;21.41;41.37;100263.75;6096127;28;20041;-69
2023/05/15 12:45:20;;;;;;;7.88;3.63;;;;;;;21.25;40.26;100273.25;6097173;28;20278;-69
2023/05/15 12:48:15;;;;;;;7.32;3.35;;;;;;;21.09;41.12;100268.47;6098758;28;20029;-69
2023/05/15 12:51:11;;;;;;;7.90;3.73;;;;;;;21.20;40.58;100256.94;6096172;28;20039;-69
2023/05/15 12:54:15;;;;;;;6.43;3.13;;;;;;;21.06;40.74;100268.88;6096662;28;20301;-69
2023/05/15 12:57:11;;;;;;;6.53;3.03;;;;;;;21.01;39.69;100271.44;6098071;28;20108;-69
2023/05/15 13:00:09;;;;;;;5.32;3.58;;;;;;;21.15;38.69;100250.56;6098613;28;20507;-69
2023/05/15 13:03:08;;;;;;;6.00;3.40;;;;;;;21.52;39.00;100262.97;6096426;28;20096;-69
2023/05/15 13:06:05;;;;;;;5.72;3.00;;;;;;;21.83;39.09;100262.72;6097819;28;20029;-69
2023/05/15 13:09:01;;;;;;;6.10;3.15;;;;;;;22.11;39.64;100262.13;6097207;28;20032;-69
2023/05/15 13:11:56;;;;;;;6.35;3.50;;;;;;;22.12;40.39;100242.19;6098116;28;20055;-68
2023/05/15 13:14:51;;;;;;;8.13;3.70;;;;;;;22.39;38.40;100247.97;6097595;28;20075;-69
2023/05/15 13:17:47;;;;;;;6.27;3.30;;;;;;;22.64;37.92;100239.66;6098051;28;20048;-70
2023/05/15 13:20:45;;;;;;;8.27;4.03;;;;;;;22.75;37.78;100236.91;6097747;28;20059;-69
2023/05/15 13:23:40;;;;;;;9.23;4.40;;;;;;;22.32;39.08;100231.00;6096898;28;20041;-69
2023/05/15 13:26:37;;;;;;;7.20;4.20;;;;;;;22.13;39.73;100249.22;6097358;28;20060;-69
2023/05/15 13:29:32;;;;;;;9.95;4.85;;;;;;;21.58;40.81;100232.34;6097297;28;20028;-69
2023/05/15 13:32:27;;;;;;;10.93;4.67;;;;;;;21.47;43.21;100248.53;6096782;28;20052;-69
2023/05/15 13:35:22;;;;;;;6.63;4.20;;;;;;;21.10;43.28;100253.13;6096841;28;20029;-69
2023/05/15 13:38:18;;;;;;;6.47;3.73;;;;;;;20.77;42.49;100250.75;6097609;28;20483;-69